createdAt,value
2023-05-10T00:00:21.460Z,12.04
2023-05-10T00:02:48.268Z,12.03
2023-05-10T00:05:15.248Z,12.03
2023-05-10T00:07:42.002Z,12.04
2023-05-10T00:10:08.848Z,12.05
2023-05-10T00:12:35.448Z,12.04
2023-05-10T00:15:02.270Z,12.05
2023-05-10T00:17:28.754Z,12.09
2023-05-10T00:19:55.586Z,12.09
2023-05-10T00:22:22.274Z,12.07
2023-05-10T00:24:48.739Z,12.12
2023-05-10T00:27:15.453Z,12.10
2023-05-10T00:29:41.918Z,12.13
2023-05-10T00:32:08.827Z,12.13
2023-05-10T00:34:35.460Z,12.14
2023-05-10T00:37:02.484Z,12.15
2023-05-10T00:39:29.606Z,12.14
2023-05-10T00:41:56.061Z,12.14
2023-05-10T00:44:22.491Z,12.13
2023-05-10T00:46:50.155Z,12.13
2023-05-10T00:49:17.442Z,12.16
2023-05-10T00:51:45.643Z,12.16
2023-05-10T00:54:13.325Z,12.17
2023-05-10T00:56:40.559Z,12.18
2023-05-10T00:59:07.652Z,12.15
2023-05-10T01:01:34.600Z,12.12
2023-05-10T01:04:01.656Z,12.12
2023-05-10T01:06:28.691Z,12.12
2023-05-10T01:08:55.337Z,12.10
2023-05-10T01:11:22.257Z,12.11
2023-05-10T01:13:55.654Z,12.12
2023-05-10T01:16:22.191Z,12.10
2023-05-10T01:18:50.491Z,12.13
2023-05-10T01:21:47.705Z,12.11
2023-05-10T01:24:26.589Z,12.12
2023-05-10T01:27:20.860Z,12.13
2023-05-10T01:30:13.998Z,12.13
2023-05-10T01:32:51.533Z,12.11
2023-05-10T01:35:33.613Z,12.12
2023-05-10T01:38:09.734Z,12.13
2023-05-10T01:41:02.556Z,12.12
2023-05-10T01:43:36.515Z,12.13
2023-05-10T01:46:15.600Z,12.12
2023-05-10T01:48:53.030Z,12.13
2023-05-10T01:51:26.121Z,12.11
2023-05-10T01:54:01.483Z,12.12
2023-05-10T01:56:30.606Z,12.13
2023-05-10T01:58:59.681Z,12.13
2023-05-10T02:01:27.659Z,12.11
2023-05-10T02:03:56.590Z,12.12
2023-05-10T02:06:24.715Z,12.10
2023-05-10T02:08:53.179Z,12.07
2023-05-10T02:11:21.965Z,12.05
2023-05-10T02:13:51.429Z,12.06
2023-05-10T02:16:19.217Z,12.09
2023-05-10T02:18:46.812Z,12.12
2023-05-10T02:21:16.345Z,12.12
2023-05-10T02:23:44.213Z,12.11
2023-05-10T02:26:12.972Z,12.11
2023-05-10T02:28:41.333Z,12.11
2023-05-10T02:31:10.702Z,12.10
2023-05-10T02:33:40.845Z,12.07
2023-05-10T02:36:09.662Z,12.07
2023-05-10T02:38:37.673Z,12.05
2023-05-10T02:41:06.601Z,12.05
2023-05-10T02:43:34.781Z,12.05
2023-05-10T02:46:01.777Z,12.05
2023-05-10T02:48:28.895Z,12.03
2023-05-10T02:51:01.542Z,12.00
2023-05-10T02:53:39.321Z,11.98
2023-05-10T02:56:14.358Z,11.96
2023-05-10T02:58:41.070Z,11.99
2023-05-10T03:01:08.738Z,11.99
2023-05-10T03:03:35.395Z,11.97
2023-05-10T03:06:01.903Z,11.89
2023-05-10T03:08:30.423Z,11.94
2023-05-10T03:11:15.245Z,11.87
2023-05-10T03:14:12.842Z,11.78
2023-05-10T03:16:48.084Z,11.75
2023-05-10T03:19:27.186Z,11.64
2023-05-10T03:21:56.873Z,11.60
2023-05-10T03:24:28.354Z,11.62
2023-05-10T03:27:00.058Z,11.62
2023-05-10T03:29:27.356Z,11.62
2023-05-10T03:31:53.936Z,11.60
2023-05-10T03:34:26.855Z,11.62
2023-05-10T03:36:53.418Z,11.60
2023-05-10T03:39:20.277Z,11.61
2023-05-10T03:41:46.716Z,11.61
2023-05-10T03:44:13.232Z,11.59
2023-05-10T03:46:39.681Z,11.57
2023-05-10T03:49:06.452Z,11.61
2023-05-10T03:51:33.248Z,11.57
2023-05-10T03:53:59.743Z,11.55
2023-05-10T03:56:26.573Z,11.57
2023-05-10T03:58:53.085Z,11.59
2023-05-10T04:01:19.519Z,11.62
2023-05-10T04:03:46.408Z,11.61
2023-05-10T04:06:13.109Z,11.60
2023-05-10T04:08:39.811Z,11.60
2023-05-10T04:11:10.652Z,11.58
2023-05-10T04:13:37.907Z,11.63
2023-05-10T04:16:05.088Z,11.62
2023-05-10T04:18:32.414Z,11.61
2023-05-10T04:20:58.926Z,11.61
2023-05-10T04:23:25.505Z,11.64
2023-05-10T04:25:51.998Z,11.62
2023-05-10T04:28:18.471Z,11.66
2023-05-10T04:30:45.077Z,11.68
2023-05-10T04:33:11.527Z,11.69
2023-05-10T04:35:38.036Z,11.71
2023-05-10T04:38:04.492Z,11.72
2023-05-10T04:40:30.960Z,11.71
2023-05-10T04:42:57.462Z,11.70
2023-05-10T04:45:23.905Z,11.68
2023-05-10T04:47:50.448Z,11.69
2023-05-10T04:50:17.313Z,11.69
2023-05-10T04:52:43.946Z,11.71
2023-05-10T04:55:10.982Z,11.76
2023-05-10T04:57:37.535Z,11.77
2023-05-10T05:00:04.863Z,11.76
2023-05-10T05:02:31.756Z,11.77
2023-05-10T05:04:58.871Z,11.76
2023-05-10T05:07:25.318Z,11.76
2023-05-10T05:09:51.752Z,11.85
2023-05-10T05:12:18.179Z,11.86
2023-05-10T05:14:44.661Z,11.86
2023-05-10T05:17:11.115Z,11.88
2023-05-10T05:19:37.956Z,11.87
2023-05-10T05:22:04.675Z,11.90
2023-05-10T05:24:36.724Z,11.93
2023-05-10T05:27:03.409Z,11.94
2023-05-10T05:29:30.043Z,11.93
2023-05-10T05:31:56.684Z,11.94
2023-05-10T05:34:23.407Z,11.91
2023-05-10T05:36:49.900Z,11.96
2023-05-10T05:39:16.668Z,11.98
2023-05-10T05:41:43.553Z,11.97
2023-05-10T05:44:10.021Z,11.97
2023-05-10T05:46:36.493Z,11.96
2023-05-10T05:49:02.928Z,11.93
2023-05-10T05:51:29.520Z,11.95
2023-05-10T05:53:56.295Z,11.99
2023-05-10T05:56:25.590Z,12.01
2023-05-10T05:58:52.319Z,12.02
2023-05-10T06:01:18.837Z,11.98
2023-05-10T06:03:45.471Z,11.98
2023-05-10T06:06:12.082Z,11.97
2023-05-10T06:08:38.565Z,11.95
2023-05-10T06:11:05.295Z,11.92
2023-05-10T06:13:33.726Z,11.91
2023-05-10T06:16:00.471Z,11.87
2023-05-10T06:18:27.314Z,11.92
2023-05-10T06:20:53.779Z,11.91
2023-05-10T06:23:20.257Z,11.91
2023-05-10T06:25:46.928Z,11.86
2023-05-10T06:28:13.477Z,11.85
2023-05-10T06:30:39.935Z,11.87
2023-05-10T06:33:06.654Z,11.88
2023-05-10T06:35:34.524Z,11.98
2023-05-10T06:38:01.021Z,12.08
2023-05-10T06:40:27.660Z,12.01
2023-05-10T06:42:54.261Z,12.03
2023-05-10T06:45:21.017Z,12.04
2023-05-10T06:47:47.652Z,12.02
2023-05-10T06:50:14.346Z,11.95
2023-05-10T06:52:40.842Z,11.98
2023-05-10T06:55:08.026Z,12.07
2023-05-10T06:57:34.726Z,12.11
2023-05-10T07:00:01.292Z,12.03
2023-05-10T07:02:28.077Z,12.03
2023-05-10T07:04:55.108Z,12.06
2023-05-10T07:07:21.740Z,12.12
2023-05-10T07:09:48.433Z,12.07
2023-05-10T07:12:15.849Z,12.16
2023-05-10T07:14:43.090Z,12.21
2023-05-10T07:17:09.822Z,12.14
2023-05-10T07:19:36.905Z,12.17
2023-05-10T07:22:03.840Z,12.14
2023-05-10T07:24:30.847Z,12.17
2023-05-10T07:26:57.331Z,12.13
2023-05-10T07:29:23.806Z,12.13
2023-05-10T07:31:50.294Z,12.23
2023-05-10T07:34:16.829Z,12.29
2023-05-10T07:36:43.495Z,12.32
2023-05-10T07:39:11.423Z,12.47
2023-05-10T07:41:38.620Z,12.55
2023-05-10T07:44:05.898Z,12.50
2023-05-10T07:46:32.753Z,12.53
2023-05-10T07:48:59.628Z,12.63
2023-05-10T07:51:26.256Z,12.67
2023-05-10T07:53:52.943Z,12.79
2023-05-10T07:56:33.248Z,12.70
2023-05-10T07:59:00.406Z,12.73
2023-05-10T08:01:30.788Z,12.83
2023-05-10T08:03:57.317Z,12.86
2023-05-10T08:06:23.959Z,12.82
2023-05-10T08:08:51.509Z,12.83
2023-05-10T08:11:18.557Z,12.76
2023-05-10T08:13:49.777Z,12.85
2023-05-10T08:16:16.888Z,12.78
2023-05-10T08:18:50.045Z,12.76
2023-05-10T08:21:16.827Z,12.78
2023-05-10T08:23:44.765Z,12.76
2023-05-10T08:26:11.932Z,12.80
2023-05-10T08:28:38.545Z,12.75
2023-05-10T08:31:05.986Z,12.79
2023-05-10T08:33:32.589Z,12.91
2023-05-10T08:35:59.063Z,12.82
2023-05-10T08:38:25.868Z,12.96
2023-05-10T08:40:58.015Z,12.98
2023-05-10T08:43:32.502Z,12.88
2023-05-10T08:46:03.967Z,12.92
2023-05-10T08:48:32.008Z,12.94
2023-05-10T08:51:01.632Z,12.98
2023-05-10T08:53:30.046Z,13.07
2023-05-10T08:55:56.658Z,13.15
2023-05-10T08:58:23.381Z,13.18
2023-05-10T09:00:51.923Z,13.08
2023-05-10T09:03:18.875Z,13.20
2023-05-10T09:05:46.121Z,13.44
2023-05-10T09:08:14.279Z,13.53
2023-05-10T09:10:43.257Z,13.87
2023-05-10T09:13:11.957Z,14.16
2023-05-10T09:15:39.443Z,14.23
2023-05-10T09:18:05.968Z,14.30
2023-05-10T09:20:32.573Z,13.92
2023-05-10T09:22:59.273Z,14.09
2023-05-10T09:25:25.746Z,14.28
2023-05-10T09:27:53.619Z,14.58
2023-05-10T09:30:28.702Z,14.72
2023-05-10T09:32:55.740Z,14.85
2023-05-10T09:35:28.022Z,15.00
2023-05-10T09:37:58.220Z,15.17
2023-05-10T09:40:26.342Z,15.19
2023-05-10T09:43:03.402Z,15.30
2023-05-10T09:45:31.906Z,15.71
2023-05-10T09:48:00.268Z,15.86
2023-05-10T09:50:27.707Z,16.07
2023-05-10T09:53:00.975Z,16.06
2023-05-10T09:55:42.526Z,15.78
2023-05-10T09:58:11.840Z,15.59
2023-05-10T10:00:43.167Z,15.43
2023-05-10T10:03:18.383Z,15.13
2023-05-10T10:05:45.673Z,15.08
2023-05-10T10:08:13.772Z,15.01
2023-05-10T10:10:46.294Z,14.86
2023-05-10T10:13:13.551Z,14.91
2023-05-10T10:15:40.391Z,14.90
2023-05-10T10:18:09.059Z,14.84
2023-05-10T10:20:38.522Z,14.76
2023-05-10T10:23:04.984Z,14.86
2023-05-10T10:25:32.779Z,14.87
2023-05-10T10:28:22.981Z,15.16
2023-05-10T10:30:52.340Z,15.39
2023-05-10T10:33:37.161Z,15.45
2023-05-10T10:36:05.088Z,15.27
2023-05-10T10:38:47.875Z,15.47
2023-05-10T10:41:33.063Z,15.48
2023-05-10T10:44:47.856Z,15.21
2023-05-10T10:47:19.795Z,14.96
2023-05-10T10:50:02.892Z,15.10
2023-05-10T10:52:34.510Z,15.26
2023-05-10T10:55:08.242Z,15.31
2023-05-10T10:58:03.787Z,15.16
2023-05-10T11:00:36.510Z,15.11
2023-05-10T11:03:15.548Z,15.07
2023-05-10T11:05:43.938Z,15.33
2023-05-10T11:08:12.998Z,15.46
2023-05-10T11:10:40.659Z,15.37
2023-05-10T11:13:09.074Z,15.19
2023-05-10T11:15:35.612Z,15.17
2023-05-10T11:18:18.048Z,15.06
2023-05-10T11:20:44.606Z,14.94
2023-05-10T11:23:16.854Z,14.81
2023-05-10T11:25:45.222Z,14.84
2023-05-10T11:28:15.226Z,14.97
2023-05-10T11:30:44.498Z,14.97
2023-05-10T11:33:17.062Z,15.07
2023-05-10T11:35:44.085Z,15.47
2023-05-10T11:38:12.433Z,15.74
2023-05-10T11:40:40.064Z,16.00
2023-05-10T11:43:06.867Z,16.29
2023-05-10T11:45:34.431Z,16.72
2023-05-10T11:48:01.848Z,16.96
2023-05-10T11:50:28.877Z,17.15
2023-05-10T11:52:59.793Z,17.09
2023-05-10T11:55:26.661Z,17.04
2023-05-10T11:57:54.521Z,17.07
2023-05-10T12:00:21.318Z,17.01
2023-05-10T12:02:48.581Z,16.61
2023-05-10T12:05:15.629Z,16.40
2023-05-10T12:07:42.162Z,16.05
2023-05-10T12:10:11.051Z,16.04
2023-05-10T12:12:45.116Z,16.01
2023-05-10T12:15:17.749Z,16.00
2023-05-10T12:17:45.639Z,16.05
2023-05-10T12:20:16.263Z,16.21
2023-05-10T12:22:51.082Z,16.30
2023-05-10T12:25:19.059Z,16.44
2023-05-10T12:30:38.742Z,16.67
2023-05-10T12:33:14.145Z,16.77
2023-05-10T12:35:54.866Z,16.63
2023-05-10T12:38:40.059Z,16.92
2023-05-10T12:41:14.693Z,17.16
2023-05-10T12:43:41.506Z,17.47
2023-05-10T12:46:09.843Z,17.62
2023-05-10T12:48:37.675Z,17.58
2023-05-10T12:51:05.021Z,17.63
2023-05-10T12:53:32.149Z,17.48
2023-05-10T12:55:58.653Z,17.48
2023-05-10T12:58:34.881Z,17.21
2023-05-10T13:01:02.611Z,17.34
2023-05-10T13:03:29.117Z,17.31
2023-05-10T13:05:55.593Z,17.51
2023-05-10T13:08:22.119Z,17.60
2023-05-10T13:10:48.758Z,17.50
2023-05-10T13:13:16.111Z,17.41
2023-05-10T13:15:42.617Z,16.92
2023-05-10T13:18:09.288Z,16.96
2023-05-10T13:20:36.038Z,16.85
2023-05-10T13:23:03.676Z,16.34
2023-05-10T13:25:30.956Z,15.81
2023-05-10T13:27:57.484Z,15.40
2023-05-10T13:30:25.013Z,15.23
2023-05-10T13:32:51.768Z,14.99
2023-05-10T13:35:18.494Z,14.67
2023-05-10T13:37:44.988Z,14.42
2023-05-10T13:40:11.753Z,14.37
2023-05-10T13:42:38.492Z,14.11
2023-05-10T13:45:05.527Z,14.13
2023-05-10T13:47:32.022Z,13.79
2023-05-10T13:49:59.320Z,13.53
2023-05-10T13:52:26.173Z,13.43
2023-05-10T13:54:55.776Z,13.43
2023-05-10T13:57:22.915Z,13.43
2023-05-10T13:59:49.512Z,13.37
2023-05-10T14:02:16.100Z,13.43
2023-05-10T14:04:42.550Z,13.46
2023-05-10T14:07:09.208Z,13.36
2023-05-10T14:09:35.667Z,13.33
2023-05-10T14:12:03.159Z,13.35
2023-05-10T14:14:30.398Z,13.32
2023-05-10T14:16:56.946Z,13.33
2023-05-10T14:19:23.493Z,13.35
2023-05-10T14:21:49.988Z,13.36
2023-05-10T14:24:16.437Z,13.43
2023-05-10T14:26:42.902Z,13.38
2023-05-10T14:29:11.497Z,13.43
2023-05-10T14:31:39.031Z,13.35
2023-05-10T14:34:06.734Z,13.32
2023-05-10T14:36:33.354Z,13.24
2023-05-10T14:38:59.899Z,13.28
2023-05-10T14:41:26.371Z,13.34
2023-05-10T14:43:53.663Z,13.28
2023-05-10T14:46:20.881Z,13.18
2023-05-10T14:48:47.576Z,13.30
2023-05-10T14:51:14.252Z,13.35
2023-05-10T14:53:40.729Z,13.36
2023-05-10T14:56:08.068Z,13.43
2023-05-10T14:58:34.619Z,13.54
2023-05-10T15:01:01.233Z,13.52
2023-05-10T15:03:28.457Z,13.52
2023-05-10T15:05:57.014Z,13.56
2023-05-10T15:08:25.473Z,13.59
2023-05-10T15:10:52.505Z,13.69
2023-05-10T15:13:19.016Z,13.81
2023-05-10T15:15:45.539Z,13.83
2023-05-10T15:18:12.335Z,13.97
2023-05-10T15:20:38.965Z,14.14
2023-05-10T15:23:05.493Z,14.32
2023-05-10T15:25:32.189Z,14.47
2023-05-10T15:27:58.759Z,14.70
2023-05-10T15:30:25.326Z,14.72
2023-05-10T15:32:51.971Z,14.77
2023-05-10T15:35:18.986Z,14.84
2023-05-10T15:37:48.446Z,14.97
2023-05-10T15:40:15.017Z,14.90
2023-05-10T15:42:41.600Z,14.75
2023-05-10T15:45:11.769Z,14.80
2023-05-10T15:47:40.639Z,14.72
2023-05-10T15:50:08.060Z,14.83
2023-05-10T15:52:34.788Z,14.93
2023-05-10T15:55:01.227Z,15.00
2023-05-10T15:57:27.896Z,14.94
2023-05-10T15:59:54.531Z,14.85
2023-05-10T16:02:22.505Z,14.95
2023-05-10T16:04:49.268Z,15.04
2023-05-10T16:07:16.009Z,15.04
2023-05-10T16:09:42.637Z,15.21
2023-05-10T16:12:09.324Z,15.23
2023-05-10T16:14:35.834Z,15.33
2023-05-10T16:17:03.183Z,15.19
2023-05-10T16:19:31.936Z,15.11
2023-05-10T16:21:58.531Z,15.10
2023-05-10T16:24:25.984Z,15.02
2023-05-10T16:26:52.807Z,14.95
2023-05-10T16:29:19.514Z,14.96
2023-05-10T16:31:46.350Z,14.97
2023-05-10T16:34:12.837Z,14.95
2023-05-10T16:36:39.365Z,15.04
2023-05-10T16:39:05.865Z,15.07
2023-05-10T16:41:33.982Z,14.90
2023-05-10T16:44:00.676Z,14.92
2023-05-10T16:46:27.301Z,14.91
2023-05-10T16:48:53.922Z,14.94
2023-05-10T16:51:20.489Z,15.01
2023-05-10T16:53:47.114Z,15.14
2023-05-10T16:56:13.562Z,15.13
2023-05-10T16:58:40.040Z,15.12
2023-05-10T17:01:07.193Z,15.04
2023-05-10T17:03:34.189Z,15.33
2023-05-10T17:06:00.786Z,15.55
2023-05-10T17:08:27.274Z,15.57
2023-05-10T17:10:53.852Z,15.63
2023-05-10T17:13:20.284Z,15.58
2023-05-10T17:15:47.469Z,15.42
2023-05-10T17:18:14.026Z,15.33
2023-05-10T17:20:43.170Z,15.35
2023-05-10T17:23:09.790Z,15.31
2023-05-10T17:25:36.813Z,15.34
2023-05-10T17:28:03.924Z,15.33
2023-05-10T17:30:32.623Z,15.30
2023-05-10T17:33:00.151Z,15.32
2023-05-10T17:35:26.884Z,15.31
2023-05-10T17:37:53.787Z,15.38
2023-05-10T17:40:20.346Z,15.35
2023-05-10T17:42:47.024Z,15.22
2023-05-10T17:45:13.498Z,15.26
2023-05-10T17:47:40.049Z,15.13
2023-05-10T17:50:07.038Z,15.11
2023-05-10T17:52:33.755Z,15.14
2023-05-10T17:55:00.289Z,15.14
2023-05-10T17:57:26.855Z,15.20
2023-05-10T17:59:53.467Z,15.17
2023-05-10T18:02:20.125Z,15.18
2023-05-10T18:04:48.612Z,15.10
2023-05-10T18:07:15.589Z,15.09
2023-05-10T18:09:42.137Z,15.16
2023-05-10T18:12:08.680Z,15.13
2023-05-10T18:14:41.218Z,15.06
2023-05-10T18:17:09.689Z,14.98
2023-05-10T18:19:36.505Z,14.81
2023-05-10T18:22:03.235Z,14.85
2023-05-10T18:24:38.930Z,14.77
2023-05-10T18:27:08.666Z,14.75
2023-05-10T18:29:36.222Z,14.58
2023-05-10T18:32:02.988Z,14.66
2023-05-10T18:34:29.558Z,14.74
2023-05-10T18:36:56.414Z,14.72
2023-05-10T18:39:23.593Z,14.56
2023-05-10T18:41:50.260Z,14.50
2023-05-10T18:44:16.901Z,14.37
2023-05-10T18:46:43.587Z,14.45
2023-05-10T18:49:10.135Z,14.32
2023-05-10T18:51:36.941Z,14.31
2023-05-10T18:54:03.577Z,14.21
2023-05-10T18:56:30.076Z,14.17
2023-05-10T18:58:56.626Z,14.20
2023-05-10T19:01:23.238Z,14.06
2023-05-10T19:03:49.784Z,13.97
2023-05-10T19:06:16.456Z,13.83
2023-05-10T19:08:42.954Z,13.84
2023-05-10T19:11:09.481Z,13.80
2023-05-10T19:13:36.080Z,13.75
2023-05-10T19:16:05.782Z,13.70
2023-05-10T19:18:32.738Z,13.65
2023-05-10T19:21:02.349Z,13.57
2023-05-10T19:23:30.222Z,13.55
2023-05-10T19:25:57.014Z,13.51
2023-05-10T19:28:23.495Z,13.41
2023-05-10T19:30:50.330Z,13.39
2023-05-10T19:33:18.410Z,13.32
2023-05-10T19:35:48.635Z,13.25
2023-05-10T19:38:15.165Z,13.19
2023-05-10T19:40:41.839Z,13.09
2023-05-10T19:43:08.608Z,13.03
2023-05-10T19:45:37.134Z,13.06
2023-05-10T19:48:03.843Z,13.03
2023-05-10T19:50:30.505Z,12.97
2023-05-10T19:52:58.439Z,12.91
2023-05-10T19:55:30.889Z,12.87
2023-05-10T19:57:57.929Z,12.83
2023-05-10T20:00:24.941Z,12.72
2023-05-10T20:02:51.716Z,12.72
2023-05-10T20:05:18.456Z,12.64
2023-05-10T20:07:45.457Z,12.64
2023-05-10T20:10:12.174Z,12.63
2023-05-10T20:12:38.688Z,12.58
2023-05-10T20:15:07.497Z,12.54
2023-05-10T20:17:35.842Z,12.53
2023-05-10T20:20:02.330Z,12.53
2023-05-10T20:22:28.829Z,12.56
2023-05-10T20:24:56.284Z,12.52
2023-05-10T20:27:22.888Z,12.57
2023-05-10T20:29:49.363Z,12.55
2023-05-10T20:32:16.054Z,12.56
2023-05-10T20:34:42.515Z,12.50
2023-05-10T20:37:09.140Z,12.48
2023-05-10T20:39:35.821Z,12.38
2023-05-10T20:42:02.390Z,12.44
2023-05-10T20:44:28.888Z,12.45
2023-05-10T20:46:55.437Z,12.43
2023-05-10T20:49:21.880Z,12.42
2023-05-10T20:51:48.345Z,12.43
2023-05-10T20:54:14.802Z,12.43
2023-05-10T20:56:41.314Z,12.43
2023-05-10T20:59:07.817Z,12.45
2023-05-10T21:01:34.317Z,12.44
2023-05-10T21:04:00.876Z,12.49
2023-05-10T21:06:27.316Z,12.53
2023-05-10T21:08:53.838Z,12.55
2023-05-10T21:11:20.786Z,12.56
2023-05-10T21:13:47.298Z,12.55
2023-05-10T21:16:13.834Z,12.56
2023-05-10T21:18:40.350Z,12.53
2023-05-10T21:21:06.896Z,12.56
2023-05-10T21:23:34.668Z,12.53
2023-05-10T21:26:03.723Z,12.54
2023-05-10T21:28:30.167Z,12.54
2023-05-10T21:30:56.954Z,12.52
2023-05-10T21:33:23.812Z,12.50
2023-05-10T21:35:50.563Z,12.49
2023-05-10T21:38:17.198Z,12.53
2023-05-10T21:40:43.740Z,12.52
2023-05-10T21:43:11.310Z,12.49
2023-05-10T21:45:38.102Z,12.52
2023-05-10T21:48:04.946Z,12.51
2023-05-10T21:50:31.420Z,12.49
2023-05-10T21:52:58.112Z,12.46
2023-05-10T21:55:24.722Z,12.40
2023-05-10T21:57:51.248Z,12.39
2023-05-10T22:00:19.238Z,12.35
2023-05-10T22:02:46.795Z,12.29
2023-05-10T22:05:13.589Z,12.28
2023-05-10T22:07:40.082Z,12.25
2023-05-10T22:10:08.509Z,12.26
2023-05-10T22:12:35.217Z,12.24
2023-05-10T22:15:10.226Z,12.25
2023-05-10T22:17:40.745Z,12.24
2023-05-10T22:20:08.886Z,12.26
2023-05-10T22:22:36.517Z,12.27
2023-05-10T22:25:03.054Z,12.27
2023-05-10T22:27:29.519Z,12.29
2023-05-10T22:29:56.537Z,12.27
2023-05-10T22:32:23.066Z,12.25
2023-05-10T22:34:49.587Z,12.26
2023-05-10T22:37:17.953Z,12.26
2023-05-10T22:39:48.625Z,12.27
2023-05-10T22:42:15.729Z,12.24
2023-05-10T22:44:42.718Z,12.27
2023-05-10T22:47:09.399Z,12.27
2023-05-10T22:49:36.154Z,12.27
2023-05-10T22:52:02.601Z,12.28
2023-05-10T22:54:29.164Z,12.24
2023-05-10T22:56:56.508Z,12.22
2023-05-10T22:59:23.523Z,12.25
2023-05-10T23:01:50.289Z,12.23
2023-05-10T23:04:16.951Z,12.21
2023-05-10T23:06:43.540Z,12.20
2023-05-10T23:09:10.083Z,12.15
2023-05-10T23:11:36.573Z,12.17
2023-05-10T23:14:03.282Z,12.22
2023-05-10T23:16:30.512Z,12.20
2023-05-10T23:18:57.312Z,12.14
2023-05-10T23:21:26.595Z,12.15
2023-05-10T23:23:53.080Z,12.16
2023-05-10T23:26:19.563Z,12.12
2023-05-10T23:28:46.052Z,12.06
2023-05-10T23:31:12.663Z,12.12
2023-05-10T23:33:39.146Z,12.11
2023-05-10T23:36:05.771Z,12.12
2023-05-10T23:38:32.239Z,12.06
2023-05-10T23:40:58.772Z,12.07
2023-05-10T23:43:25.453Z,12.08
2023-05-10T23:45:54.145Z,12.10
2023-05-10T23:48:21.074Z,12.06
2023-05-10T23:50:47.866Z,12.01
2023-05-10T23:53:14.458Z,12.04
2023-05-10T23:55:40.940Z,12.01
2023-05-10T23:58:07.421Z,12.03
